createdAt,value
2022-12-04T00:01:23.876Z,2.00
2022-12-04T00:03:57.093Z,2.00
2022-12-04T00:06:25.428Z,2.00
2022-12-04T00:08:53.306Z,2.00
2022-12-04T00:11:25.074Z,2.00
2022-12-04T00:13:52.069Z,2.00
2022-12-04T00:16:23.199Z,2.00
2022-12-04T00:18:51.149Z,2.00
2022-12-04T00:21:19.892Z,1.90
2022-12-04T00:23:47.720Z,1.90
2022-12-04T00:26:24.555Z,1.90
2022-12-04T00:28:52.309Z,1.90
2022-12-04T00:31:26.036Z,1.90
2022-12-04T00:33:53.552Z,1.90
2022-12-04T00:36:25.960Z,2.00
2022-12-04T00:38:53.736Z,2.00
2022-12-04T00:41:24.662Z,2.00
2022-12-04T00:43:52.475Z,2.70
2022-12-04T00:46:20.115Z,2.00
2022-12-04T00:48:52.134Z,2.00
2022-12-04T00:51:23.309Z,2.00
2022-12-04T00:53:52.544Z,2.00
2022-12-04T00:56:26.848Z,2.00
2022-12-04T00:59:01.091Z,2.00
2022-12-04T01:01:29.277Z,2.10
2022-12-04T01:03:56.623Z,2.10
2022-12-04T01:06:33.506Z,2.00
2022-12-04T01:09:03.808Z,2.00
2022-12-04T01:11:31.589Z,2.00
2022-12-04T01:13:59.359Z,2.10
2022-12-04T01:16:32.241Z,2.00
2022-12-04T01:18:59.935Z,2.00
2022-12-04T01:21:27.186Z,2.00
2022-12-04T01:23:54.027Z,2.00
2022-12-04T01:26:21.293Z,2.00
2022-12-04T01:28:49.043Z,2.00
2022-12-04T01:31:19.877Z,2.00
2022-12-04T01:33:48.019Z,2.00
2022-12-04T01:36:26.202Z,2.10
2022-12-04T01:38:54.284Z,2.10
2022-12-04T01:41:25.801Z,2.10
2022-12-04T01:44:20.898Z,2.10
2022-12-04T01:46:59.690Z,2.10
2022-12-04T01:49:44.286Z,2.10
2022-12-04T01:52:20.580Z,2.20
2022-12-04T01:54:54.250Z,2.20
2022-12-04T01:57:24.842Z,2.20
2022-12-04T02:00:06.115Z,2.20
2022-12-04T02:02:37.927Z,2.20
2022-12-04T02:05:15.453Z,2.20
2022-12-04T02:07:45.795Z,2.20
2022-12-04T02:10:13.932Z,2.20
2022-12-04T02:13:07.876Z,2.20
2022-12-04T02:16:08.925Z,2.20
2022-12-04T02:18:48.190Z,2.20
2022-12-04T02:21:33.683Z,2.20
2022-12-04T02:24:46.817Z,2.20
2022-12-04T02:27:40.736Z,2.30
2022-12-04T02:30:14.405Z,2.30
2022-12-04T02:33:01.564Z,2.20
2022-12-04T02:35:36.911Z,2.20
2022-12-04T02:38:17.082Z,2.30
2022-12-04T02:41:12.122Z,2.30
2022-12-04T02:43:50.993Z,2.30
2022-12-04T02:46:34.596Z,2.30
2022-12-04T02:49:06.637Z,2.20
2022-12-04T02:51:37.184Z,2.30
2022-12-04T02:54:19.272Z,2.30
2022-12-04T02:56:49.382Z,2.30
2022-12-04T02:59:30.215Z,2.30
2022-12-04T03:02:03.911Z,2.30
2022-12-04T03:04:31.173Z,2.30
2022-12-04T03:07:23.652Z,2.30
2022-12-04T03:10:09.300Z,2.30
2022-12-04T03:12:57.707Z,2.30
2022-12-04T03:15:32.149Z,2.30
2022-12-04T03:18:14.836Z,2.30
2022-12-04T03:20:47.460Z,2.30
2022-12-04T03:23:29.890Z,2.30
2022-12-04T03:26:15.765Z,2.30
2022-12-04T03:29:19.453Z,2.30
2022-12-04T03:32:11.589Z,2.30
2022-12-04T03:34:55.391Z,2.30
2022-12-04T03:37:43.017Z,2.30
2022-12-04T03:40:49.672Z,2.30
2022-12-04T03:43:50.815Z,2.30
2022-12-04T03:46:45.668Z,2.30
2022-12-04T03:49:39.659Z,2.30
2022-12-04T03:52:43.237Z,2.30
2022-12-04T03:55:39.151Z,2.30
2022-12-04T03:58:16.311Z,2.30
2022-12-04T04:00:47.259Z,2.30
2022-12-04T04:03:23.999Z,2.30
2022-12-04T04:05:58.328Z,2.30
2022-12-04T04:08:33.922Z,2.30
2022-12-04T04:11:21.809Z,2.30
2022-12-04T04:14:19.601Z,2.40
2022-12-04T04:17:15.507Z,2.40
2022-12-04T04:20:08.844Z,2.40
2022-12-04T04:22:56.311Z,2.40
2022-12-04T04:25:27.740Z,2.40
2022-12-04T04:27:57.816Z,2.40
2022-12-04T04:30:27.298Z,2.40
2022-12-04T04:33:11.719Z,2.40
2022-12-04T04:36:08.661Z,2.40
2022-12-04T04:38:47.194Z,2.40
2022-12-04T04:41:28.355Z,2.40
2022-12-04T04:44:30.720Z,2.40
2022-12-04T04:47:06.409Z,2.40
2022-12-04T04:49:37.752Z,2.40
2022-12-04T04:52:04.599Z,2.50
2022-12-04T04:54:34.559Z,2.50
2022-12-04T04:57:01.248Z,2.50
2022-12-04T04:59:30.052Z,2.40
2022-12-04T05:01:56.983Z,2.40
2022-12-04T05:04:23.752Z,2.40
2022-12-04T05:06:50.439Z,2.40
2022-12-04T05:09:19.360Z,2.40
2022-12-04T05:11:46.038Z,2.50
2022-12-04T05:14:12.831Z,2.50
2022-12-04T05:16:40.868Z,2.50
2022-12-04T05:19:26.025Z,2.50
2022-12-04T05:21:52.820Z,2.50
2022-12-04T05:24:19.539Z,2.50
2022-12-04T05:26:46.276Z,2.50
2022-12-04T05:29:12.975Z,2.50
2022-12-04T05:31:39.844Z,2.60
2022-12-04T05:34:06.640Z,2.50
2022-12-04T05:36:33.360Z,2.50
2022-12-04T05:39:00.055Z,2.50
2022-12-04T05:41:26.767Z,2.60
2022-12-04T05:43:53.505Z,2.60
2022-12-04T05:46:20.681Z,2.60
2022-12-04T05:48:47.435Z,2.60
2022-12-04T05:51:14.179Z,2.60
2022-12-04T05:53:40.988Z,2.60
2022-12-04T05:56:08.438Z,2.50
2022-12-04T05:58:38.766Z,2.60
2022-12-04T06:01:22.609Z,2.60
2022-12-04T06:03:49.959Z,2.60
2022-12-04T06:06:22.635Z,2.60
2022-12-04T06:08:52.004Z,2.60
2022-12-04T06:11:30.215Z,2.60
2022-12-04T06:13:59.349Z,2.60
2022-12-04T06:16:30.553Z,2.60
2022-12-04T06:19:05.659Z,2.60
2022-12-04T06:21:35.109Z,2.70
2022-12-04T06:24:02.108Z,2.70
2022-12-04T06:26:29.350Z,2.70
2022-12-04T06:28:58.002Z,2.70
2022-12-04T06:31:27.728Z,2.70
2022-12-04T06:33:57.252Z,2.70
2022-12-04T06:36:24.896Z,2.70
2022-12-04T06:38:54.290Z,2.70
2022-12-04T06:41:22.063Z,2.70
2022-12-04T06:43:50.533Z,2.70
2022-12-04T06:46:22.171Z,2.70
2022-12-04T06:48:50.405Z,2.70
2022-12-04T06:51:27.010Z,2.70
2022-12-04T06:53:54.597Z,2.70
2022-12-04T06:56:25.696Z,2.70
2022-12-04T06:58:56.403Z,2.70
2022-12-04T07:01:29.851Z,2.70
2022-12-04T07:03:57.716Z,2.70
2022-12-04T07:06:28.811Z,2.70
2022-12-04T07:09:10.464Z,2.70
2022-12-04T07:11:39.164Z,2.70
2022-12-04T07:14:06.100Z,2.80
2022-12-04T07:16:39.894Z,2.70
2022-12-04T07:19:09.546Z,2.80
2022-12-04T07:21:36.280Z,2.80
2022-12-04T07:24:03.233Z,2.80
2022-12-04T07:26:31.252Z,2.80
2022-12-04T07:28:59.811Z,2.90
2022-12-04T07:31:29.282Z,2.90
2022-12-04T07:33:57.607Z,2.50
2022-12-04T07:36:26.226Z,2.90
2022-12-04T07:38:55.261Z,2.90
2022-12-04T07:41:22.683Z,2.90
2022-12-04T07:43:49.415Z,2.90
2022-12-04T07:46:20.920Z,2.90
2022-12-04T07:48:47.899Z,2.90
2022-12-04T07:51:19.707Z,2.90
2022-12-04T07:53:47.967Z,3.00
2022-12-04T07:56:15.849Z,3.00
2022-12-04T07:58:43.661Z,3.10
2022-12-04T08:01:17.583Z,3.10
2022-12-04T08:03:49.162Z,3.20
2022-12-04T08:06:19.981Z,3.20
2022-12-04T08:08:47.976Z,3.20
2022-12-04T08:11:21.025Z,3.30
2022-12-04T08:13:48.754Z,3.30
2022-12-04T08:16:15.843Z,3.30
2022-12-04T08:18:46.520Z,3.30
2022-12-04T08:21:20.486Z,3.30
2022-12-04T08:23:50.498Z,3.20
2022-12-04T08:26:19.992Z,3.30
2022-12-04T08:28:46.924Z,3.30
2022-12-04T08:31:20.880Z,3.30
2022-12-04T08:33:49.895Z,3.30
2022-12-04T08:36:21.089Z,3.30
2022-12-04T08:38:48.643Z,3.40
2022-12-04T08:41:19.658Z,3.40
2022-12-04T08:43:46.414Z,3.40
2022-12-04T08:46:18.270Z,3.50
2022-12-04T08:48:45.499Z,3.50
2022-12-04T08:51:19.236Z,3.50
2022-12-04T08:53:46.573Z,3.60
2022-12-04T08:56:14.148Z,3.60
2022-12-04T08:58:41.144Z,3.60
2022-12-04T09:01:12.436Z,3.60
2022-12-04T09:03:39.926Z,3.70
2022-12-04T09:06:09.520Z,3.70
2022-12-04T09:08:37.337Z,3.70
2022-12-04T09:11:17.530Z,3.70
2022-12-04T09:13:45.464Z,3.80
2022-12-04T09:16:16.445Z,3.80
2022-12-04T09:18:43.988Z,3.90
2022-12-04T09:21:15.010Z,3.90
2022-12-04T09:23:43.027Z,3.90
2022-12-04T09:26:23.384Z,4.00
2022-12-04T09:28:51.426Z,3.90
2022-12-04T09:31:20.211Z,3.90
2022-12-04T09:33:47.580Z,4.00
2022-12-04T09:36:18.217Z,4.00
2022-12-04T09:38:48.759Z,4.00
2022-12-04T09:41:51.255Z,4.10
2022-12-04T09:44:29.532Z,4.20
2022-12-04T09:47:04.798Z,4.30
2022-12-04T09:49:56.945Z,4.40
2022-12-04T09:52:46.131Z,4.60
2022-12-04T09:55:22.541Z,4.70
2022-12-04T09:57:57.056Z,4.80
2022-12-04T10:00:28.704Z,4.90
2022-12-04T10:03:03.757Z,4.90
2022-12-04T10:05:54.521Z,4.90
2022-12-04T10:08:25.105Z,4.90
2022-12-04T10:11:14.007Z,4.90
2022-12-04T10:14:16.964Z,4.80
2022-12-04T10:17:00.144Z,4.80
2022-12-04T10:20:29.413Z,4.80
2022-12-04T10:23:13.598Z,4.80
2022-12-04T10:25:42.673Z,5.00
2022-12-04T10:28:37.648Z,5.00
2022-12-04T10:31:10.748Z,5.20
2022-12-04T10:33:54.917Z,5.30
2022-12-04T10:36:26.856Z,5.30
2022-12-04T10:39:34.871Z,5.30
2022-12-04T10:42:31.161Z,5.40
2022-12-04T10:44:58.313Z,5.60
2022-12-04T10:47:25.604Z,5.60
2022-12-04T10:50:02.194Z,5.60
2022-12-04T10:52:28.933Z,5.50
2022-12-04T10:55:00.281Z,5.50
2022-12-04T10:57:41.365Z,5.50
2022-12-04T11:00:35.193Z,5.50
2022-12-04T11:03:23.654Z,5.50
2022-12-04T11:06:01.284Z,5.50
2022-12-04T11:08:51.005Z,5.60
2022-12-04T11:11:31.908Z,5.60
2022-12-04T11:14:17.320Z,5.60
2022-12-04T11:16:49.898Z,5.70
2022-12-04T11:19:25.537Z,5.10
2022-12-04T11:21:56.361Z,5.70
2022-12-04T11:24:50.879Z,5.80
2022-12-04T11:27:24.780Z,5.80
2022-12-04T11:29:52.163Z,5.90
2022-12-04T11:32:28.876Z,5.90
2022-12-04T11:35:03.553Z,5.80
2022-12-04T11:37:33.947Z,5.80
2022-12-04T11:40:06.803Z,5.80
2022-12-04T11:42:33.647Z,5.70
2022-12-04T11:45:19.606Z,5.70
2022-12-04T11:47:55.672Z,5.60
2022-12-04T11:50:47.601Z,5.60
2022-12-04T11:53:33.869Z,5.60
2022-12-04T11:56:34.288Z,5.60
2022-12-04T11:59:12.135Z,5.60
2022-12-04T12:02:17.535Z,5.50
2022-12-04T12:05:18.574Z,5.50
2022-12-04T12:08:10.563Z,5.60
2022-12-04T12:10:56.676Z,5.60
2022-12-04T12:14:04.066Z,5.60
2022-12-04T12:16:51.630Z,5.60
2022-12-04T12:19:36.892Z,5.70
2022-12-04T12:22:26.517Z,5.70
2022-12-04T12:25:16.439Z,5.70
2022-12-04T12:28:15.459Z,5.70
2022-12-04T12:31:12.346Z,5.60
2022-12-04T12:34:11.880Z,5.60
2022-12-04T12:36:49.390Z,5.60
2022-12-04T12:39:26.695Z,5.60
2022-12-04T12:41:58.929Z,5.60
2022-12-04T12:44:56.078Z,5.60
2022-12-04T12:47:31.948Z,5.60
2022-12-04T12:50:14.028Z,5.60
2022-12-04T12:53:01.791Z,5.70
2022-12-04T12:55:36.865Z,5.60
2022-12-04T12:58:16.973Z,5.60
2022-12-04T13:00:59.836Z,5.60
2022-12-04T13:03:43.948Z,5.60
2022-12-04T13:06:18.959Z,5.60
2022-12-04T13:09:12.599Z,5.70
2022-12-04T13:11:41.460Z,5.70
2022-12-04T13:14:13.611Z,5.70
2022-12-04T13:17:15.921Z,5.70
2022-12-04T13:19:54.476Z,5.70
2022-12-04T13:22:35.108Z,5.80
2022-12-04T13:25:35.828Z,5.80
2022-12-04T13:28:38.170Z,5.80
2022-12-04T13:31:19.086Z,5.90
2022-12-04T13:34:21.858Z,5.90
2022-12-04T13:37:16.318Z,5.90
2022-12-04T13:40:10.534Z,5.80
2022-12-04T13:42:37.522Z,5.80
2022-12-04T13:45:20.708Z,5.70
2022-12-04T13:48:01.992Z,5.70
2022-12-04T13:50:30.572Z,5.70
2022-12-04T13:52:58.001Z,5.70
2022-12-04T13:55:33.256Z,5.70
2022-12-04T13:58:10.385Z,5.70
2022-12-04T14:00:43.003Z,5.60
2022-12-04T14:03:29.607Z,5.60
2022-12-04T14:05:56.822Z,5.60
2022-12-04T14:08:39.624Z,5.60
2022-12-04T14:11:19.219Z,5.60
2022-12-04T14:13:56.493Z,5.60
2022-12-04T14:16:38.599Z,5.60
2022-12-04T14:19:09.505Z,5.60
2022-12-04T14:21:47.567Z,5.60
2022-12-04T14:24:34.897Z,5.50
2022-12-04T14:27:32.051Z,5.50
2022-12-04T14:30:00.267Z,5.50
2022-12-04T14:32:33.533Z,5.50
2022-12-04T14:35:01.717Z,5.50
2022-12-04T14:37:37.806Z,5.40
2022-12-04T14:40:07.519Z,5.40
2022-12-04T14:42:39.040Z,5.40
2022-12-04T14:45:46.875Z,5.40
2022-12-04T14:48:30.418Z,5.40
2022-12-04T14:51:35.726Z,5.30
2022-12-04T14:54:24.976Z,5.30
2022-12-04T14:57:14.795Z,5.30
2022-12-04T14:59:47.274Z,5.30
2022-12-04T15:02:28.353Z,5.30
2022-12-04T15:04:55.513Z,5.30
2022-12-04T15:07:30.755Z,5.30
2022-12-04T15:10:19.865Z,5.30
2022-12-04T15:12:54.479Z,5.30
2022-12-04T15:15:28.135Z,5.30
2022-12-04T15:17:59.090Z,5.30
2022-12-04T15:20:27.736Z,5.20
2022-12-04T15:22:58.636Z,5.20
2022-12-04T15:25:50.501Z,5.20
2022-12-04T15:28:40.562Z,5.20
2022-12-04T15:31:18.008Z,5.20
2022-12-04T15:33:48.388Z,5.20
2022-12-04T15:36:34.493Z,5.20
2022-12-04T15:39:02.479Z,5.20
2022-12-04T15:41:33.907Z,5.20
2022-12-04T15:44:01.370Z,5.20
2022-12-04T15:46:37.858Z,5.20
2022-12-04T15:49:20.119Z,5.20
2022-12-04T15:51:48.203Z,5.20
2022-12-04T15:54:22.478Z,5.20
2022-12-04T15:57:13.960Z,5.20
2022-12-04T15:59:40.797Z,5.20
2022-12-04T16:02:29.324Z,5.20
2022-12-04T16:04:56.521Z,5.20
2022-12-04T16:07:29.519Z,5.20
2022-12-04T16:10:03.810Z,5.20
2022-12-04T16:12:32.863Z,5.20
2022-12-04T16:14:59.584Z,5.10
2022-12-04T16:17:32.849Z,5.10
2022-12-04T16:20:00.800Z,5.10
2022-12-04T16:22:29.871Z,5.10
2022-12-04T16:24:56.994Z,5.10
2022-12-04T16:27:25.757Z,5.10
2022-12-04T16:29:53.355Z,5.20
2022-12-04T16:32:27.124Z,5.10
2022-12-04T16:34:54.074Z,5.20
2022-12-04T16:37:23.011Z,5.10
2022-12-04T16:39:50.124Z,5.10
2022-12-04T16:42:28.320Z,5.10
2022-12-04T16:44:55.542Z,5.10
2022-12-04T16:47:22.592Z,5.10
2022-12-04T16:49:51.976Z,5.10
2022-12-04T16:52:19.990Z,5.10
2022-12-04T16:54:47.088Z,5.10
2022-12-04T16:57:13.836Z,5.10
2022-12-04T16:59:40.587Z,5.10
2022-12-04T17:02:22.344Z,5.10
2022-12-04T17:04:54.111Z,5.10
2022-12-04T17:07:23.984Z,5.10
2022-12-04T17:09:50.689Z,5.10
2022-12-04T17:12:17.384Z,5.10
2022-12-04T17:14:44.186Z,5.10
2022-12-04T17:17:10.991Z,5.10
2022-12-04T17:19:37.786Z,5.10
2022-12-04T17:22:04.613Z,5.10
2022-12-04T17:24:31.395Z,5.10
2022-12-04T17:26:58.245Z,5.30
2022-12-04T17:29:24.934Z,5.20
2022-12-04T17:31:51.696Z,5.20
2022-12-04T17:34:18.583Z,5.20
2022-12-04T17:36:45.351Z,5.20
2022-12-04T17:39:13.364Z,5.20
2022-12-04T17:41:40.073Z,5.20
2022-12-04T17:44:06.779Z,5.20
2022-12-04T17:46:33.620Z,5.20
2022-12-04T17:49:06.625Z,5.20
2022-12-04T17:51:35.648Z,5.20
2022-12-04T17:54:02.392Z,5.20
2022-12-04T17:56:29.287Z,5.20
2022-12-04T17:58:56.295Z,5.20
2022-12-04T18:01:27.311Z,5.20
2022-12-04T18:03:58.296Z,5.30
2022-12-04T18:06:31.710Z,5.30
2022-12-04T18:08:59.690Z,5.30
2022-12-04T18:11:30.030Z,5.30
2022-12-04T18:14:11.910Z,5.30
2022-12-04T18:16:43.497Z,5.30
2022-12-04T18:19:12.175Z,5.30
2022-12-04T18:21:39.045Z,5.40
2022-12-04T18:24:06.506Z,5.40
2022-12-04T18:26:39.883Z,5.40
2022-12-04T18:29:07.796Z,5.30
2022-12-04T18:31:35.229Z,5.30
2022-12-04T18:34:04.465Z,5.30
2022-12-04T18:36:32.621Z,5.30
2022-12-04T18:39:03.884Z,5.20
2022-12-04T18:41:31.842Z,5.20
2022-12-04T18:43:59.057Z,5.10
2022-12-04T18:46:26.389Z,5.10
2022-12-04T18:48:55.048Z,5.10
2022-12-04T18:51:28.960Z,5.10
2022-12-04T18:54:06.323Z,5.10
2022-12-04T18:56:35.446Z,5.10
2022-12-04T18:59:08.057Z,5.10
2022-12-04T19:01:35.479Z,5.10
2022-12-04T19:04:05.836Z,5.10
2022-12-04T19:06:40.299Z,5.20
2022-12-04T19:09:13.012Z,5.10
2022-12-04T19:11:41.351Z,5.20
2022-12-04T19:14:19.245Z,5.20
2022-12-04T19:16:50.446Z,5.20
2022-12-04T19:19:17.954Z,5.20
2022-12-04T19:21:44.735Z,5.20
2022-12-04T19:24:12.283Z,5.20
2022-12-04T19:26:39.894Z,5.20
2022-12-04T19:29:07.888Z,5.20
2022-12-04T19:31:37.782Z,5.20
2022-12-04T19:34:06.221Z,5.20
2022-12-04T19:36:34.910Z,5.20
2022-12-04T19:39:04.197Z,5.10
2022-12-04T19:41:36.991Z,5.10
2022-12-04T19:44:19.950Z,5.10
2022-12-04T19:46:50.877Z,5.10
2022-12-04T19:49:20.393Z,5.10
2022-12-04T19:51:48.489Z,5.10
2022-12-04T19:54:15.863Z,5.10
2022-12-04T19:56:45.969Z,5.10
2022-12-04T19:59:13.095Z,5.10
2022-12-04T20:01:40.195Z,5.10
2022-12-04T20:04:08.676Z,5.20
2022-12-04T20:06:42.927Z,5.10
2022-12-04T20:09:14.212Z,5.20
2022-12-04T20:11:41.531Z,5.20
2022-12-04T20:14:09.946Z,5.20
2022-12-04T20:16:38.770Z,5.20
2022-12-04T20:19:08.733Z,5.20
2022-12-04T20:21:35.439Z,5.20
2022-12-04T20:24:05.446Z,5.20
2022-12-04T20:26:38.090Z,5.20
2022-12-04T20:29:08.935Z,5.20
2022-12-04T20:31:39.427Z,5.20
2022-12-04T20:34:11.168Z,5.20
2022-12-04T20:36:42.191Z,5.20
2022-12-04T20:39:11.688Z,5.20
2022-12-04T20:41:39.830Z,5.20
2022-12-04T20:44:11.592Z,5.20
2022-12-04T20:46:39.901Z,5.20
2022-12-04T20:49:20.700Z,5.20
2022-12-04T20:51:49.636Z,5.20
2022-12-04T20:54:20.100Z,5.20
2022-12-04T20:56:48.797Z,5.20
2022-12-04T20:59:18.713Z,5.20
2022-12-04T21:01:46.849Z,5.20
2022-12-04T21:04:13.720Z,5.20
2022-12-04T21:06:41.207Z,5.20
2022-12-04T21:09:15.095Z,5.20
2022-12-04T21:11:46.272Z,5.20
2022-12-04T21:14:39.602Z,5.20
2022-12-04T21:17:09.548Z,5.20
2022-12-04T21:19:36.573Z,5.20
2022-12-04T21:22:03.679Z,5.20
2022-12-04T21:24:36.125Z,5.20
2022-12-04T21:27:02.946Z,5.20
2022-12-04T21:29:29.792Z,5.20
2022-12-04T21:31:56.583Z,5.20
2022-12-04T21:34:23.520Z,5.20
2022-12-04T21:36:50.394Z,5.20
2022-12-04T21:39:17.188Z,5.20
2022-12-04T21:42:02.552Z,5.20
2022-12-04T21:44:29.260Z,5.20
2022-12-04T21:46:56.227Z,5.20
2022-12-04T21:49:23.776Z,5.20
2022-12-04T21:51:58.903Z,5.20
2022-12-04T21:54:29.361Z,5.30
2022-12-04T21:56:57.037Z,5.30
2022-12-04T21:59:25.626Z,5.30
2022-12-04T22:01:52.830Z,5.30
2022-12-04T22:04:20.332Z,5.20
2022-12-04T22:06:47.618Z,5.20
2022-12-04T22:09:14.340Z,5.20
2022-12-04T22:11:41.597Z,5.20
2022-12-04T22:14:10.002Z,5.20
2022-12-04T22:16:42.050Z,5.20
2022-12-04T22:19:12.052Z,5.20
2022-12-04T22:21:39.612Z,5.20
2022-12-04T22:24:07.342Z,5.20
2022-12-04T22:26:34.160Z,5.20
2022-12-04T22:29:01.006Z,5.20
2022-12-04T22:31:30.192Z,5.20
2022-12-04T22:34:00.542Z,5.20
2022-12-04T22:36:31.459Z,5.20
2022-12-04T22:39:09.421Z,5.20
2022-12-04T22:41:37.237Z,5.20
2022-12-04T22:44:05.169Z,5.00
2022-12-04T22:46:32.276Z,5.20
2022-12-04T22:48:59.995Z,5.20
2022-12-04T22:51:27.702Z,5.20
2022-12-04T22:53:57.849Z,5.20
2022-12-04T22:56:34.255Z,5.20
2022-12-04T22:59:01.073Z,5.20
2022-12-04T23:01:33.503Z,5.20
2022-12-04T23:04:02.177Z,5.20
2022-12-04T23:06:32.360Z,5.20
2022-12-04T23:09:15.474Z,5.20
2022-12-04T23:11:43.529Z,5.20
2022-12-04T23:14:14.777Z,5.20
2022-12-04T23:16:42.299Z,5.20
2022-12-04T23:19:16.194Z,5.20
2022-12-04T23:21:43.779Z,5.20
2022-12-04T23:24:11.827Z,5.20
2022-12-04T23:26:44.382Z,5.20
2022-12-04T23:29:36.918Z,5.20
2022-12-04T23:31:58.389Z,5.20
2022-12-04T23:34:25.232Z,5.20
2022-12-04T23:36:51.947Z,5.20
2022-12-04T23:39:18.659Z,5.20
2022-12-04T23:41:45.359Z,5.20
2022-12-04T23:44:12.050Z,5.20
2022-12-04T23:46:38.806Z,5.20
2022-12-04T23:49:05.563Z,5.20
2022-12-04T23:51:32.323Z,5.20
2022-12-04T23:53:59.176Z,5.20
2022-12-04T23:56:27.995Z,5.20
2022-12-04T23:58:57.350Z,5.20
